createdAt,value
2019-04-11T00:02:31.228Z,60.19
2019-04-11T00:05:21.314Z,60.34
2019-04-11T00:08:12.140Z,60.19
2019-04-11T00:11:02.296Z,60.11
2019-04-11T00:13:53.552Z,60.23
2019-04-11T00:16:45.620Z,60.34
2019-04-11T00:19:35.954Z,60.35
2019-04-11T00:22:27.695Z,60.60
2019-04-11T00:25:17.742Z,60.46
2019-04-11T00:28:08.010Z,60.62
2019-04-11T00:31:01.351Z,60.46
2019-04-11T00:33:54.272Z,60.62
2019-04-11T00:36:44.803Z,60.67
2019-04-11T00:39:39.631Z,60.72
2019-04-11T00:42:30.435Z,60.68
2019-04-11T00:45:21.275Z,60.62
2019-04-11T00:48:11.376Z,60.71
2019-04-11T00:51:01.541Z,60.84
2019-04-11T00:53:52.057Z,60.67
2019-04-11T00:56:42.304Z,60.59
2019-04-11T00:59:32.529Z,60.70
2019-04-11T01:02:25.818Z,60.53
2019-04-11T01:05:17.853Z,60.23
2019-04-11T01:08:09.883Z,60.16
2019-04-11T01:11:00.482Z,60.10
2019-04-11T01:13:54.954Z,60.43
2019-04-11T01:16:52.649Z,60.34
2019-04-11T01:19:42.971Z,60.63
2019-04-11T01:22:35.095Z,60.22
2019-04-11T01:25:25.379Z,60.14
2019-04-11T01:28:15.344Z,60.07
2019-04-11T01:31:09.379Z,59.47
2019-04-11T01:34:02.268Z,59.31
2019-04-11T01:36:53.884Z,59.17
2019-04-11T01:39:57.098Z,59.28
2019-04-11T01:42:47.344Z,59.48
2019-04-11T01:45:37.873Z,60.41
2019-04-11T01:48:44.386Z,60.97
2019-04-11T01:51:35.903Z,60.99
2019-04-11T01:54:26.287Z,59.83
2019-04-11T01:57:15.922Z,59.46
2019-04-11T02:00:08.227Z,59.94
2019-04-11T02:02:59.576Z,59.95
2019-04-11T02:05:49.589Z,59.88
2019-04-11T02:08:41.663Z,59.84
2019-04-11T02:11:31.825Z,60.09
2019-04-11T02:14:22.599Z,60.02
2019-04-11T02:17:15.203Z,60.18
2019-04-11T02:20:07.022Z,60.21
2019-04-11T02:23:06.777Z,60.69
2019-04-11T02:26:03.554Z,61.18
2019-04-11T02:28:55.105Z,60.86
2019-04-11T02:31:46.756Z,61.89
2019-04-11T02:34:39.568Z,61.61
2019-04-11T02:37:31.538Z,61.60
2019-04-11T02:40:22.974Z,61.86
2019-04-11T02:43:17.429Z,61.58
2019-04-11T02:46:17.294Z,61.64
2019-04-11T02:49:01.498Z,61.41
2019-04-11T02:51:53.565Z,61.16
2019-04-11T02:54:45.168Z,61.02
2019-04-11T02:57:36.279Z,61.31
2019-04-11T03:00:29.189Z,61.58
2019-04-11T03:03:18.980Z,61.64
2019-04-11T03:06:11.175Z,61.55
2019-04-11T03:09:02.767Z,61.49
2019-04-11T03:11:54.635Z,61.59
2019-04-11T03:15:05.768Z,61.78
2019-04-11T03:17:43.258Z,61.98
2019-04-11T03:20:36.870Z,61.64
2019-04-11T03:23:23.544Z,61.75
2019-04-11T03:26:14.209Z,62.09
2019-04-11T03:29:06.286Z,62.37
2019-04-11T03:32:40.171Z,62.35
2019-04-11T03:38:05.825Z,63.18
2019-04-11T03:40:50.512Z,63.50
2019-04-11T03:43:36.684Z,63.70
2019-04-11T03:46:33.920Z,63.88
2019-04-11T03:49:21.022Z,64.05
2019-04-11T03:52:01.378Z,64.56
2019-04-11T03:54:54.137Z,64.68
2019-04-11T03:57:47.053Z,64.51
2019-04-11T04:00:43.890Z,64.81
2019-04-11T04:03:34.052Z,64.58
2019-04-11T04:06:25.649Z,64.74
2019-04-11T04:09:17.092Z,64.58
2019-04-11T04:12:09.048Z,64.70
2019-04-11T04:15:39.149Z,64.75
2019-04-11T04:18:29.894Z,64.75
2019-04-11T04:21:43.561Z,64.92
2019-04-11T04:24:39.784Z,64.76
2019-04-11T04:27:30.354Z,64.82
2019-04-11T04:30:24.540Z,64.96
2019-04-11T04:33:17.096Z,64.97
2019-04-11T04:36:10.416Z,64.63
2019-04-11T04:39:01.205Z,64.64
2019-04-11T04:42:01.140Z,64.38
2019-04-11T04:44:45.186Z,64.42
2019-04-11T04:47:42.377Z,64.29
2019-04-11T04:50:27.185Z,64.36
2019-04-11T04:53:20.230Z,64.63
2019-04-11T04:56:11.094Z,64.27
2019-04-11T04:59:02.631Z,63.86
2019-04-11T05:01:53.258Z,63.92
2019-04-11T05:04:45.903Z,63.99
2019-04-11T05:07:40.100Z,64.08
2019-04-11T05:10:32.599Z,64.25
2019-04-11T05:13:23.936Z,64.20
2019-04-11T05:16:17.602Z,64.26
2019-04-11T05:19:04.922Z,64.32
2019-04-11T05:21:57.574Z,64.29
2019-04-11T05:24:47.504Z,64.00
2019-04-11T05:27:37.850Z,64.04
2019-04-11T05:30:27.530Z,63.87
2019-04-11T05:33:18.739Z,63.73
2019-04-11T05:36:08.574Z,63.75
2019-04-11T05:38:58.364Z,63.46
2019-04-11T05:41:51.423Z,63.28
2019-04-11T05:44:43.257Z,63.44
2019-04-11T05:47:35.334Z,63.04
2019-04-11T05:50:36.167Z,63.33
2019-04-11T05:53:27.920Z,62.60
2019-04-11T05:56:22.264Z,62.76
2019-04-11T05:59:18.889Z,62.76
2019-04-11T06:02:21.507Z,62.44
2019-04-11T06:05:31.238Z,62.61
2019-04-11T06:08:24.133Z,62.39
2019-04-11T06:11:24.184Z,62.54
2019-04-11T06:14:22.895Z,62.15
2019-04-11T06:17:15.878Z,61.20
2019-04-11T06:20:27.171Z,60.51
2019-04-11T06:23:56.792Z,59.05
2019-04-11T06:27:11.315Z,58.22
2019-04-11T06:30:30.491Z,57.48
2019-04-11T06:33:27.093Z,57.00
2019-04-11T06:36:43.307Z,54.44
2019-04-11T06:39:37.922Z,54.94
2019-04-11T06:42:37.257Z,55.69
2019-04-11T06:45:58.623Z,54.53
2019-04-11T06:49:00.276Z,53.13
2019-04-11T06:51:56.746Z,50.40
2019-04-11T06:55:10.855Z,49.23
2019-04-11T06:58:06.689Z,51.95
2019-04-11T07:01:01.936Z,53.08
2019-04-11T07:03:55.337Z,55.56
2019-04-11T07:06:48.176Z,57.83
2019-04-11T07:09:49.099Z,57.06
2019-04-11T07:13:00.658Z,56.93
2019-04-11T07:15:54.861Z,57.28
2019-04-11T07:19:02.874Z,57.76
2019-04-11T07:21:53.463Z,57.27
2019-04-11T07:25:02.291Z,57.09
2019-04-11T07:28:10.034Z,56.62
2019-04-11T07:31:19.258Z,57.16
2019-04-11T07:34:39.652Z,57.62
2019-04-11T07:37:42.851Z,55.87
2019-04-11T07:40:51.978Z,52.16
2019-04-11T07:43:43.162Z,51.59
2019-04-11T07:46:49.499Z,52.44
2019-04-11T07:49:40.882Z,52.15
2019-04-11T07:52:34.554Z,49.64
2019-04-11T07:55:25.895Z,48.67
2019-04-11T07:58:24.010Z,50.10
2019-04-11T08:01:38.361Z,49.34
2019-04-11T08:04:47.272Z,48.61
2019-04-11T08:07:55.272Z,47.54
2019-04-11T08:10:53.026Z,47.95
2019-04-11T08:14:02.248Z,48.27
2019-04-11T08:17:28.095Z,48.25
2019-04-11T08:20:29.086Z,47.60
2019-04-11T08:23:19.764Z,46.49
2019-04-11T08:26:39.511Z,47.19
2019-04-11T08:29:30.553Z,45.59
2019-04-11T08:32:40.129Z,44.27
2019-04-11T08:35:53.474Z,44.09
2019-04-11T08:38:46.473Z,43.79
2019-04-11T08:41:56.982Z,42.86
2019-04-11T08:44:48.126Z,40.45
2019-04-11T08:47:52.676Z,38.11
2019-04-11T08:50:44.923Z,37.62
2019-04-11T08:53:55.020Z,38.91
2019-04-11T08:56:47.366Z,39.33
2019-04-11T09:00:14.057Z,41.80
2019-04-11T09:03:18.363Z,42.76
2019-04-11T09:06:12.405Z,42.57
2019-04-11T09:09:20.968Z,41.55
2019-04-11T09:12:14.287Z,39.89
2019-04-11T09:15:37.057Z,42.41
2019-04-11T09:18:28.062Z,43.17
2019-04-11T09:21:36.151Z,42.90
2019-04-11T09:24:41.221Z,43.14
2019-04-11T09:27:55.497Z,42.97
2019-04-11T09:31:12.181Z,41.90
2019-04-11T09:34:21.777Z,39.28
2019-04-11T09:37:25.359Z,39.73
2019-04-11T09:40:37.632Z,37.10
2019-04-11T09:43:31.766Z,38.87
2019-04-11T09:46:34.485Z,41.27
2019-04-11T09:49:31.072Z,40.38
2019-04-11T09:52:29.020Z,42.08
2019-04-11T09:55:39.588Z,41.02
2019-04-11T09:58:29.599Z,42.62
2019-04-11T10:01:40.791Z,41.99
2019-04-11T10:04:33.925Z,42.72
2019-04-11T10:07:33.529Z,43.16
2019-04-11T10:10:46.552Z,42.89
2019-04-11T10:13:55.913Z,42.76
2019-04-11T10:17:04.552Z,43.12
2019-04-11T10:20:00.864Z,42.01
2019-04-11T10:23:12.946Z,42.53
2019-04-11T10:26:04.454Z,42.23
2019-04-11T10:29:13.441Z,39.85
2019-04-11T10:32:03.463Z,40.78
2019-04-11T10:35:30.362Z,40.67
2019-04-11T10:38:20.522Z,39.44
2019-04-11T10:41:32.664Z,39.08
2019-04-11T10:44:42.304Z,39.33
2019-04-11T10:47:33.724Z,37.05
2019-04-11T10:50:50.683Z,37.39
2019-04-11T10:53:43.769Z,36.94
2019-04-11T10:56:45.924Z,36.90
2019-04-11T10:59:36.435Z,35.72
2019-04-11T11:03:02.008Z,36.26
2019-04-11T11:05:55.506Z,35.82
2019-04-11T11:08:57.563Z,37.07
2019-04-11T11:11:59.359Z,38.38
2019-04-11T11:15:14.000Z,37.43
2019-04-11T11:18:53.989Z,37.83
2019-04-11T11:21:30.010Z,38.25
2019-04-11T11:24:44.207Z,37.75
2019-04-11T11:27:36.181Z,36.98
2019-04-11T11:30:47.301Z,36.46
2019-04-11T11:33:38.572Z,37.16
2019-04-11T11:37:07.055Z,37.33
2019-04-11T11:40:16.576Z,37.67
2019-04-11T11:43:30.986Z,37.62
2019-04-11T11:46:38.308Z,38.14
2019-04-11T11:49:42.425Z,37.79
2019-04-11T11:52:49.542Z,38.61
2019-04-11T11:55:41.162Z,38.09
2019-04-11T11:58:56.164Z,39.25
2019-04-11T12:01:50.949Z,39.20
2019-04-11T12:04:56.073Z,39.03
2019-04-11T12:08:00.411Z,39.76
2019-04-11T12:11:04.270Z,39.15
2019-04-11T12:14:18.604Z,37.88
2019-04-11T12:17:23.148Z,38.18
2019-04-11T12:20:20.833Z,37.08
2019-04-11T12:23:29.515Z,37.85
2019-04-11T12:26:20.295Z,37.31
2019-04-11T12:29:30.618Z,38.55
2019-04-11T12:32:25.332Z,38.97
2019-04-11T12:35:34.130Z,39.40
2019-04-11T12:38:54.668Z,39.52
2019-04-11T12:42:15.387Z,39.41
2019-04-11T12:45:23.981Z,38.31
2019-04-11T12:48:13.788Z,38.05
2019-04-11T12:51:34.272Z,38.69
2019-04-11T12:54:28.912Z,39.16
2019-04-11T12:57:37.620Z,38.58
2019-04-11T13:00:50.518Z,39.01
2019-04-11T13:03:58.279Z,39.33
2019-04-11T13:07:22.164Z,39.38
2019-04-11T13:10:31.875Z,39.24
2019-04-11T13:13:30.660Z,39.42
2019-04-11T13:16:21.551Z,38.64
2019-04-11T13:19:28.737Z,38.82
2019-04-11T13:22:22.341Z,38.88
2019-04-11T13:25:35.594Z,39.39
2019-04-11T13:28:29.093Z,39.07
2019-04-11T13:31:36.651Z,40.08
2019-04-11T13:34:26.805Z,39.77
2019-04-11T13:37:30.899Z,40.46
2019-04-11T13:40:36.471Z,39.66
2019-04-11T13:43:31.833Z,39.76
2019-04-11T13:46:47.142Z,39.86
2019-04-11T13:49:43.146Z,40.25
2019-04-11T13:52:54.869Z,39.52
2019-04-11T13:55:44.749Z,39.76
2019-04-11T13:58:55.395Z,39.70
2019-04-11T14:01:46.452Z,39.45
2019-04-11T14:04:43.025Z,39.88
2019-04-11T14:07:34.150Z,38.70
2019-04-11T14:10:25.327Z,38.48
2019-04-11T14:13:17.265Z,38.64
2019-04-11T14:16:10.965Z,38.28
2019-04-11T14:19:21.051Z,38.70
2019-04-11T14:22:13.745Z,38.38
2019-04-11T14:25:33.953Z,38.36
2019-04-11T14:28:24.587Z,38.97
2019-04-11T14:31:37.344Z,39.99
2019-04-11T14:34:45.706Z,40.31
2019-04-11T14:37:51.515Z,39.77
2019-04-11T14:41:09.857Z,39.75
2019-04-11T14:44:02.952Z,40.70
2019-04-11T14:47:14.210Z,40.41
2019-04-11T14:50:04.394Z,40.50
2019-04-11T14:53:25.095Z,40.19
2019-04-11T14:56:16.935Z,40.59
2019-04-11T14:59:15.664Z,40.85
2019-04-11T15:02:13.140Z,40.84
2019-04-11T15:05:13.661Z,40.14
2019-04-11T15:08:01.148Z,40.70
2019-04-11T15:11:10.066Z,40.54
2019-04-11T15:14:09.358Z,40.36
2019-04-11T15:17:30.537Z,39.94
2019-04-11T15:20:55.484Z,39.63
2019-04-11T15:23:45.422Z,40.51
2019-04-11T15:26:52.857Z,39.42
2019-04-11T15:29:45.935Z,39.42
2019-04-11T15:32:59.933Z,39.43
2019-04-11T15:35:50.545Z,38.81
2019-04-11T15:39:02.214Z,39.21
2019-04-11T15:42:01.437Z,39.35
2019-04-11T15:45:04.458Z,39.28
2019-04-11T15:48:10.605Z,38.96
2019-04-11T15:51:35.114Z,40.23
2019-04-11T15:54:44.076Z,40.97
2019-04-11T15:57:46.639Z,40.67
2019-04-11T16:01:04.756Z,40.60
2019-04-11T16:04:02.412Z,40.58
2019-04-11T16:07:11.245Z,40.92
2019-04-11T16:10:00.826Z,41.08
2019-04-11T16:12:57.315Z,41.99
2019-04-11T16:15:50.458Z,41.67
2019-04-11T16:18:59.478Z,41.61
2019-04-11T16:22:14.520Z,41.69
2019-04-11T16:25:08.695Z,41.79
2019-04-11T16:28:16.269Z,41.51
2019-04-11T16:31:09.474Z,41.37
2019-04-11T16:34:16.107Z,41.28
2019-04-11T16:37:08.049Z,41.25
2019-04-11T16:40:16.493Z,40.64
2019-04-11T16:43:09.316Z,40.81
2019-04-11T16:46:19.881Z,41.05
2019-04-11T16:49:10.479Z,41.11
2019-04-11T16:52:01.655Z,41.28
2019-04-11T16:54:52.455Z,41.80
2019-04-11T16:57:44.335Z,41.87
2019-04-11T17:00:35.307Z,42.11
2019-04-11T17:03:25.689Z,42.35
2019-04-11T17:06:33.244Z,42.59
2019-04-11T17:09:34.103Z,42.47
2019-04-11T17:12:26.680Z,42.55
2019-04-11T17:15:17.207Z,42.66
2019-04-11T17:18:09.540Z,42.74
2019-04-11T17:20:59.741Z,41.78
2019-04-11T17:23:49.773Z,41.94
2019-04-11T17:26:39.921Z,41.94
2019-04-11T17:29:31.338Z,42.05
2019-04-11T17:32:23.617Z,41.94
2019-04-11T17:35:15.356Z,41.92
2019-04-11T17:38:08.094Z,41.76
2019-04-11T17:40:59.559Z,42.09
2019-04-11T17:43:51.605Z,42.09
2019-04-11T17:46:45.064Z,42.55
2019-04-11T17:49:36.976Z,42.79
2019-04-11T17:52:29.107Z,43.44
2019-04-11T17:55:18.792Z,43.86
2019-04-11T17:58:09.066Z,43.81
2019-04-11T18:01:05.181Z,43.83
2019-04-11T18:03:53.242Z,44.26
2019-04-11T18:06:46.999Z,43.88
2019-04-11T18:09:35.887Z,43.94
2019-04-11T18:12:28.157Z,44.27
2019-04-11T18:15:20.213Z,44.52
2019-04-11T18:18:12.820Z,44.98
2019-04-11T18:21:06.995Z,44.97
2019-04-11T18:23:55.272Z,45.13
2019-04-11T18:26:45.498Z,45.00
2019-04-11T18:29:38.835Z,45.26
2019-04-11T18:32:28.540Z,45.58
2019-04-11T18:35:19.784Z,45.49
2019-04-11T18:38:09.925Z,46.12
2019-04-11T18:41:02.321Z,47.20
2019-04-11T18:43:53.467Z,48.68
2019-04-11T18:46:44.011Z,49.55
2019-04-11T18:49:36.902Z,50.19
2019-04-11T18:52:29.005Z,50.56
2019-04-11T18:55:23.504Z,51.39
2019-04-11T18:58:14.402Z,51.48
2019-04-11T19:01:09.063Z,51.69
2019-04-11T19:03:59.532Z,52.33
2019-04-11T19:06:52.415Z,52.53
2019-04-11T19:09:43.876Z,53.30
2019-04-11T19:12:36.672Z,53.02
2019-04-11T19:15:26.786Z,53.07
2019-04-11T19:18:17.308Z,53.32
2019-04-11T19:21:11.860Z,53.40
2019-04-11T19:24:02.054Z,53.56
2019-04-11T19:26:53.415Z,53.74
2019-04-11T19:29:44.086Z,54.15
2019-04-11T19:32:35.504Z,54.41
2019-04-11T19:35:27.264Z,54.60
2019-04-11T19:38:43.405Z,55.04
2019-04-11T19:41:33.703Z,54.98
2019-04-11T19:44:23.624Z,55.31
2019-04-11T19:47:13.846Z,55.54
2019-04-11T19:50:06.936Z,55.76
2019-04-11T19:52:56.995Z,56.19
2019-04-11T19:56:00.458Z,56.31
2019-04-11T19:58:51.592Z,56.66
2019-04-11T20:01:43.173Z,56.94
2019-04-11T20:04:35.020Z,57.38
2019-04-11T20:07:25.146Z,57.82
2019-04-11T20:10:16.119Z,58.02
2019-04-11T20:13:06.855Z,57.67
2019-04-11T20:15:57.653Z,57.67
2019-04-11T20:18:51.388Z,57.98
2019-04-11T20:21:39.887Z,57.74
2019-04-11T20:24:33.107Z,58.01
2019-04-11T20:27:22.673Z,58.08
2019-04-11T20:30:13.513Z,58.38
2019-04-11T20:33:08.465Z,58.19
2019-04-11T20:35:59.537Z,58.28
2019-04-11T20:38:49.937Z,58.16
2019-04-11T20:41:39.766Z,58.90
2019-04-11T20:44:30.731Z,58.57
2019-04-11T20:47:20.630Z,58.68
2019-04-11T20:50:10.600Z,58.79
2019-04-11T20:53:11.970Z,58.77
2019-04-11T20:55:54.154Z,59.20
2019-04-11T20:58:44.494Z,59.59
2019-04-11T21:01:35.209Z,59.34
2019-04-11T21:04:27.241Z,59.88
2019-04-11T21:07:18.413Z,59.54
2019-04-11T21:10:10.061Z,59.69
2019-04-11T21:13:00.044Z,59.80
2019-04-11T21:15:54.171Z,60.02
2019-04-11T21:18:45.586Z,60.07
2019-04-11T21:21:35.449Z,60.11
2019-04-11T21:24:25.657Z,60.69
2019-04-11T21:27:15.819Z,60.45
2019-04-11T21:30:05.856Z,60.89
2019-04-11T21:33:01.159Z,60.85
2019-04-11T21:35:50.501Z,61.01
2019-04-11T21:38:40.550Z,61.47
2019-04-11T21:41:30.781Z,61.14
2019-04-11T21:44:21.088Z,61.49
2019-04-11T21:47:13.343Z,61.28
2019-04-11T21:50:09.142Z,61.42
2019-04-11T21:52:57.896Z,61.72
2019-04-11T21:55:48.373Z,61.57
2019-04-11T21:58:39.383Z,61.54
2019-04-11T22:01:29.513Z,61.78
2019-04-11T22:04:19.388Z,61.97
2019-04-11T22:07:09.576Z,61.49
2019-04-11T22:10:00.618Z,61.54
2019-04-11T22:12:49.971Z,61.77
2019-04-11T22:15:42.453Z,61.92
2019-04-11T22:18:32.902Z,61.96
2019-04-11T22:21:22.306Z,61.91
2019-04-11T22:24:12.477Z,62.06
2019-04-11T22:27:02.222Z,61.90
2019-04-11T22:29:54.973Z,61.96
2019-04-11T22:32:46.876Z,62.10
2019-04-11T22:35:39.186Z,62.33
2019-04-11T22:38:31.060Z,62.44
2019-04-11T22:41:20.365Z,62.44
2019-04-11T22:44:10.600Z,62.41
2019-04-11T22:47:00.810Z,62.70
2019-04-11T22:49:50.758Z,62.69
2019-04-11T22:52:42.323Z,62.63
2019-04-11T22:55:32.526Z,62.63
2019-04-11T22:58:22.483Z,62.80
2019-04-11T23:01:16.584Z,62.59
2019-04-11T23:04:05.940Z,62.83
2019-04-11T23:06:55.658Z,62.86
2019-04-11T23:09:48.767Z,62.79
2019-04-11T23:12:37.130Z,62.15
2019-04-11T23:15:26.766Z,62.09
2019-04-11T23:18:18.735Z,62.50
2019-04-11T23:21:09.284Z,62.57
2019-04-11T23:24:11.799Z,62.59
2019-04-11T23:26:56.701Z,62.85
2019-04-11T23:29:48.550Z,62.69
2019-04-11T23:32:38.195Z,62.84
2019-04-11T23:35:29.086Z,63.04
2019-04-11T23:38:23.611Z,63.11
2019-04-11T23:41:11.501Z,63.36
2019-04-11T23:44:01.899Z,63.54
2019-04-11T23:46:52.717Z,63.75
2019-04-11T23:49:43.677Z,63.56
2019-04-11T23:52:33.158Z,63.53
2019-04-11T23:55:25.174Z,63.81
2019-04-11T23:58:16.431Z,64.37
